Jackson, Mississippi
Current Conditions -  °F | °C
As of 6:53 PM on Saturday 22 Nov 2014 (Local Time) from KHKS Reporting Station
Clear Clear  
Wind Chill: 16°   Ceiling: Unl
Heat Index: 16°   Visibility: 10mi
Dew Point: 11°   Wind: 6mph
Humidity: 70%   Direction: 140°SE
Pressure: 30.04"   Gusts: NA
Location:  32.3°N, 90.18°W
Report Text: KHKS 230053Z 14005KT 10SM CLR 16/11 A3004 RMK AO2 SLP167 T01610106
Loading
Personal Weather Stations






























Interactive Weather Map New forecast layout! Learn more

10-Day Weather Forecast

Advertisements
Track Severe Weather on mobile